createdAt,value
2022-12-12T00:00:01.136Z,23.60
2022-12-12T00:01:04.701Z,23.98
2022-12-12T00:01:52.148Z,24.59
2022-12-12T00:02:36.196Z,23.83
2022-12-12T00:03:11.362Z,23.91
2022-12-12T00:03:59.129Z,23.31
2022-12-12T00:04:33.205Z,24.69
2022-12-12T00:05:23.112Z,28.65
2022-12-12T00:06:04.852Z,33.00
2022-12-12T00:06:53.110Z,30.95
2022-12-12T00:07:27.202Z,29.10
2022-12-12T00:08:08.206Z,26.44
2022-12-12T00:08:49.160Z,24.42
2022-12-12T00:09:29.118Z,24.08
2022-12-12T00:10:10.207Z,24.16
2022-12-12T00:10:51.158Z,23.51
2022-12-12T00:11:33.263Z,22.38
2022-12-12T00:12:16.153Z,23.11
2022-12-12T00:12:59.181Z,23.13
2022-12-12T00:13:40.372Z,23.11
2022-12-12T00:14:20.131Z,23.80
2022-12-12T00:15:00.106Z,23.01
2022-12-12T00:15:40.215Z,23.16
2022-12-12T00:16:21.174Z,22.31
2022-12-12T00:17:01.207Z,22.48
2022-12-12T00:17:41.126Z,22.65
2022-12-12T00:18:21.146Z,21.39
2022-12-12T00:19:02.091Z,22.39
2022-12-12T00:19:43.278Z,23.50
2022-12-12T00:20:23.092Z,24.44
2022-12-12T00:21:04.152Z,24.09
2022-12-12T00:21:45.112Z,23.05
2022-12-12T00:22:25.129Z,22.59
2022-12-12T00:23:05.075Z,23.08
2022-12-12T00:23:45.225Z,21.81
2022-12-12T00:24:25.107Z,22.21
2022-12-12T00:25:05.170Z,22.21
2022-12-12T00:25:46.089Z,23.21
2022-12-12T00:26:33.194Z,22.60
2022-12-12T00:27:14.074Z,22.29
2022-12-12T00:27:54.112Z,21.79
2022-12-12T00:28:35.086Z,21.50
2022-12-12T00:29:15.179Z,20.92
2022-12-12T00:30:02.087Z,20.56
2022-12-12T00:30:42.141Z,20.25
2022-12-12T00:31:23.110Z,20.90
2022-12-12T00:32:03.127Z,20.24
2022-12-12T00:32:43.089Z,20.76
2022-12-12T00:33:24.127Z,20.92
2022-12-12T00:34:05.081Z,21.08
2022-12-12T00:34:45.356Z,19.30
2022-12-12T00:35:26.106Z,18.13
2022-12-12T00:36:06.146Z,18.65
2022-12-12T00:36:47.068Z,18.49
2022-12-12T00:37:27.163Z,18.30
2022-12-12T00:38:07.071Z,17.45
2022-12-12T00:38:47.104Z,17.19
2022-12-12T00:39:29.093Z,16.63
2022-12-12T00:40:10.476Z,17.14
2022-12-12T00:40:50.092Z,16.33
2022-12-12T00:41:31.149Z,15.68
2022-12-12T00:42:11.063Z,16.33
2022-12-12T00:42:51.178Z,18.23
2022-12-12T00:43:32.060Z,17.80
2022-12-12T00:44:13.092Z,17.38
2022-12-12T00:44:54.045Z,16.65
2022-12-12T00:45:34.233Z,15.77
2022-12-12T00:46:15.165Z,15.80
2022-12-12T00:46:55.285Z,15.96
2022-12-12T00:47:35.075Z,16.16
2022-12-12T00:48:16.252Z,16.52
2022-12-12T00:49:00.062Z,15.61
2022-12-12T00:49:40.127Z,15.00
2022-12-12T00:50:20.058Z,15.13
2022-12-12T00:51:01.116Z,15.81
2022-12-12T00:51:41.084Z,16.31
2022-12-12T00:52:21.137Z,16.55
2022-12-12T00:53:03.067Z,15.85
2022-12-12T00:53:45.363Z,17.01
2022-12-12T00:54:26.065Z,15.55
2022-12-12T00:55:06.400Z,15.20
2022-12-12T00:55:47.052Z,15.70
2022-12-12T00:56:30.797Z,14.61
2022-12-12T00:57:11.078Z,14.31
2022-12-12T00:57:51.063Z,14.41
2022-12-12T00:58:32.031Z,15.52
2022-12-12T00:59:12.120Z,14.94
2022-12-12T00:59:52.047Z,15.10
2022-12-12T01:00:32.152Z,14.32
2022-12-12T01:01:18.102Z,14.82
2022-12-12T01:01:58.127Z,14.85
2022-12-12T01:02:39.114Z,15.09
2022-12-12T01:03:19.235Z,16.06
2022-12-12T01:04:00.048Z,15.65
2022-12-12T01:04:40.053Z,16.11
2022-12-12T01:05:21.014Z,16.67
2022-12-12T01:06:01.117Z,14.70
2022-12-12T01:06:41.039Z,14.35
2022-12-12T01:07:21.088Z,15.53
2022-12-12T01:08:01.087Z,15.60
2022-12-12T01:08:41.165Z,16.52
2022-12-12T01:09:21.024Z,15.75
2022-12-12T01:10:01.055Z,15.27
2022-12-12T01:10:41.044Z,17.59
2022-12-12T01:11:22.159Z,16.81
2022-12-12T01:12:02.036Z,17.50
2022-12-12T01:12:43.143Z,18.65
2022-12-12T01:13:24.051Z,17.11
2022-12-12T01:14:04.108Z,16.08
2022-12-12T01:14:44.036Z,15.80
2022-12-12T01:15:24.178Z,14.74
2022-12-12T01:16:05.043Z,15.01
2022-12-12T01:16:45.186Z,15.59
2022-12-12T01:17:25.011Z,15.86
2022-12-12T01:18:05.051Z,15.77
2022-12-12T01:18:46.088Z,15.20
2022-12-12T01:19:26.084Z,16.60
2022-12-12T01:20:06.020Z,17.34
2022-12-12T01:20:48.083Z,17.00
2022-12-12T01:21:29.048Z,16.51
2022-12-12T01:22:09.887Z,16.48
2022-12-12T01:22:51.019Z,15.51
2022-12-12T01:23:31.080Z,14.93
2022-12-12T01:24:12.060Z,15.18
2022-12-12T01:24:52.090Z,15.93
2022-12-12T01:25:33.041Z,15.30
2022-12-12T01:26:18.164Z,14.45
2022-12-12T01:26:59.024Z,15.41
2022-12-12T01:27:39.086Z,14.88
2022-12-12T01:28:20.008Z,14.07
2022-12-12T01:29:00.069Z,13.02
2022-12-12T01:29:42.034Z,12.98
2022-12-12T01:30:25.084Z,13.95
2022-12-12T01:31:05.055Z,14.49
2022-12-12T01:31:45.151Z,14.41
2022-12-12T01:32:24.998Z,14.06
2022-12-12T01:33:05.100Z,13.64
2022-12-12T01:33:46.114Z,13.82
2022-12-12T01:34:26.101Z,14.73
2022-12-12T01:35:07.032Z,12.99
2022-12-12T01:35:47.063Z,13.40
2022-12-12T01:36:30.014Z,14.20
2022-12-12T01:37:10.056Z,14.13
2022-12-12T01:37:49.983Z,14.32
2022-12-12T01:38:30.052Z,13.82
2022-12-12T01:39:12.004Z,13.26
2022-12-12T01:39:52.046Z,13.10
2022-12-12T01:40:36.023Z,14.06
2022-12-12T01:41:16.113Z,13.71
2022-12-12T01:41:55.995Z,13.01
2022-12-12T01:42:36.022Z,13.15
2022-12-12T01:43:20.975Z,13.01
2022-12-12T01:44:02.051Z,13.30
2022-12-12T01:44:53.992Z,13.34
2022-12-12T01:46:24.079Z,13.95
2022-12-12T01:47:18.022Z,13.48
2022-12-12T01:48:12.005Z,12.49
2022-12-12T01:49:11.988Z,13.41
2022-12-12T01:50:14.966Z,16.90
2022-12-12T01:51:12.000Z,25.88
2022-12-12T01:51:53.018Z,26.74
2022-12-12T01:52:47.026Z,19.13
2022-12-12T01:53:27.984Z,17.08
2022-12-12T01:54:14.031Z,17.92
2022-12-12T01:55:01.998Z,17.02
2022-12-12T01:55:42.132Z,14.24
2022-12-12T01:56:24.973Z,13.73
2022-12-12T01:57:16.999Z,12.82
2022-12-12T01:58:10.992Z,12.54
2022-12-12T01:59:06.000Z,13.55
2022-12-12T01:59:59.978Z,14.01
2022-12-12T02:00:55.020Z,14.66
2022-12-12T02:01:49.005Z,14.79
2022-12-12T02:02:36.990Z,13.59
2022-12-12T02:03:11.010Z,12.05
2022-12-12T02:03:57.960Z,13.35
2022-12-12T02:04:33.021Z,14.36
2022-12-12T02:05:34.981Z,13.61
2022-12-12T02:06:13.275Z,13.99
2022-12-12T02:07:01.962Z,13.98
2022-12-12T02:07:36.031Z,12.85
2022-12-12T02:08:17.111Z,12.24
2022-12-12T02:09:00.021Z,12.61
2022-12-12T02:09:40.944Z,13.25
2022-12-12T02:10:20.989Z,13.81
2022-12-12T02:11:00.978Z,14.23
2022-12-12T02:11:48.015Z,13.30
2022-12-12T02:12:27.958Z,14.01
2022-12-12T02:13:25.971Z,13.27
2022-12-12T02:14:19.967Z,13.29
2022-12-12T02:15:14.216Z,14.13
2022-12-12T02:16:13.978Z,14.06
2022-12-12T02:17:34.967Z,13.49
2022-12-12T02:19:11.024Z,14.25
2022-12-12T02:20:44.947Z,14.99
2022-12-12T02:22:04.956Z,16.02
2022-12-12T02:23:13.940Z,15.29
2022-12-12T02:24:28.972Z,13.60
2022-12-12T02:26:20.970Z,13.61
2022-12-12T02:27:40.931Z,13.91
2022-12-12T02:29:11.941Z,13.96
2022-12-12T02:30:29.977Z,13.88
2022-12-12T02:31:55.088Z,14.85
2022-12-12T02:32:59.939Z,15.68
2022-12-12T02:34:33.942Z,15.23
2022-12-12T02:35:46.948Z,15.88
2022-12-12T02:37:36.952Z,15.41
2022-12-12T02:39:02.947Z,14.59
2022-12-12T02:40:26.926Z,13.88
2022-12-12T02:41:47.951Z,13.70
2022-12-12T02:42:46.991Z,13.57
2022-12-12T02:43:58.942Z,11.91
2022-12-12T02:45:06.976Z,12.86
2022-12-12T02:45:56.921Z,12.23
2022-12-12T02:46:45.069Z,13.02
2022-12-12T02:47:29.954Z,14.31
2022-12-12T02:48:40.061Z,13.68
2022-12-12T02:49:53.933Z,12.35
2022-12-12T02:50:35.116Z,12.88
2022-12-12T02:51:17.927Z,13.74
2022-12-12T02:51:59.435Z,14.18
2022-12-12T02:52:39.943Z,13.71
2022-12-12T02:53:23.968Z,13.13
2022-12-12T02:54:06.928Z,13.64
2022-12-12T02:54:48.644Z,13.01
2022-12-12T02:55:33.778Z,12.77
2022-12-12T02:56:53.013Z,12.63
2022-12-12T02:57:33.915Z,12.84
2022-12-12T02:58:13.929Z,13.74
2022-12-12T02:58:47.952Z,14.01
2022-12-12T02:59:42.912Z,12.55
2022-12-12T03:00:24.013Z,13.13
2022-12-12T03:01:42.998Z,13.13
2022-12-12T03:02:42.159Z,13.52
2022-12-12T03:04:00.939Z,12.79
2022-12-12T03:05:20.650Z,13.23
2022-12-12T03:06:57.900Z,12.55
2022-12-12T03:08:03.984Z,13.07
2022-12-12T03:09:23.943Z,13.23
2022-12-12T03:10:14.950Z,12.73
2022-12-12T03:11:03.895Z,12.29
2022-12-12T03:12:08.232Z,12.19
2022-12-12T03:13:18.904Z,12.56
2022-12-12T03:14:14.933Z,11.95
2022-12-12T03:15:07.908Z,11.89
2022-12-12T03:16:00.082Z,11.96
2022-12-12T03:16:57.900Z,11.80
2022-12-12T03:18:04.955Z,12.01
2022-12-12T03:19:15.879Z,11.81
2022-12-12T03:20:24.958Z,10.89
2022-12-12T03:21:48.872Z,11.55
2022-12-12T03:22:59.901Z,12.14
2022-12-12T03:23:58.899Z,12.30
2022-12-12T03:25:22.878Z,13.02
2022-12-12T03:26:18.897Z,13.15
2022-12-12T03:27:05.909Z,12.82
2022-12-12T03:27:56.875Z,12.41
2022-12-12T03:28:53.925Z,13.15
2022-12-12T03:29:42.875Z,14.63
2022-12-12T03:30:31.904Z,13.46
2022-12-12T03:31:26.904Z,12.99
2022-12-12T03:32:28.867Z,12.86
2022-12-12T03:33:56.875Z,12.01
2022-12-12T03:34:58.899Z,13.26
2022-12-12T03:36:10.915Z,11.88
2022-12-12T03:36:54.395Z,12.02
2022-12-12T03:37:49.884Z,11.76
2022-12-12T03:38:36.910Z,12.26
2022-12-12T03:39:36.862Z,12.39
2022-12-12T03:40:20.890Z,11.64
2022-12-12T03:41:11.880Z,11.94
2022-12-12T03:41:50.916Z,11.64
2022-12-12T03:43:04.866Z,11.98
2022-12-12T03:43:47.082Z,12.31
2022-12-12T03:44:43.887Z,13.05
2022-12-12T03:45:26.067Z,12.65
2022-12-12T03:46:30.886Z,11.88
2022-12-12T03:47:11.972Z,11.35
2022-12-12T03:48:26.880Z,12.06
2022-12-12T03:49:13.929Z,12.10
2022-12-12T03:50:00.860Z,13.14
2022-12-12T03:51:20.960Z,12.80
2022-12-12T03:52:13.876Z,11.05
2022-12-12T03:53:11.914Z,11.27
2022-12-12T03:54:02.831Z,12.60
2022-12-12T03:55:26.931Z,12.07
2022-12-12T03:56:18.875Z,12.11
2022-12-12T03:57:06.002Z,12.24
2022-12-12T03:57:53.872Z,12.35
2022-12-12T03:58:35.525Z,11.94
2022-12-12T03:59:27.638Z,12.44
2022-12-12T04:00:18.105Z,13.09
2022-12-12T04:00:58.867Z,12.50
2022-12-12T04:01:48.884Z,12.14
2022-12-12T04:02:49.849Z,12.71
2022-12-12T04:04:02.855Z,12.63
2022-12-12T04:04:55.119Z,13.29
2022-12-12T04:06:07.680Z,14.94
2022-12-12T04:07:16.831Z,14.95
2022-12-12T04:08:04.924Z,15.99
2022-12-12T04:08:39.435Z,17.24
2022-12-12T04:09:43.860Z,15.88
2022-12-12T04:10:36.312Z,14.66
2022-12-12T04:11:36.357Z,14.14
2022-12-12T04:13:02.962Z,13.63
2022-12-12T04:13:46.971Z,12.90
2022-12-12T04:14:41.984Z,13.94
2022-12-12T04:15:54.846Z,17.10
2022-12-12T04:16:37.447Z,15.75
2022-12-12T04:17:15.768Z,14.35
2022-12-12T04:18:20.819Z,14.73
2022-12-12T04:19:37.867Z,14.84
2022-12-12T04:21:15.892Z,15.63
2022-12-12T04:22:20.403Z,15.56
2022-12-12T04:23:39.802Z,15.70
2022-12-12T04:24:39.001Z,16.46
2022-12-12T04:25:40.801Z,15.88
2022-12-12T04:26:47.815Z,14.93
2022-12-12T04:27:27.533Z,15.71
2022-12-12T04:28:17.832Z,15.04
2022-12-12T04:29:01.377Z,13.77
2022-12-12T04:30:10.806Z,13.99
2022-12-12T04:30:44.963Z,13.55
2022-12-12T04:31:34.839Z,13.75
2022-12-12T04:32:26.823Z,13.49
2022-12-12T04:33:17.851Z,13.18
2022-12-12T04:34:04.808Z,14.61
2022-12-12T04:35:12.116Z,14.74
2022-12-12T04:35:55.814Z,15.01
2022-12-12T04:36:37.955Z,15.45
2022-12-12T04:37:23.804Z,14.34
2022-12-12T04:38:16.833Z,13.69
2022-12-12T04:38:51.831Z,14.69
2022-12-12T04:39:26.863Z,14.00
2022-12-12T04:40:11.778Z,14.18
2022-12-12T04:40:50.053Z,13.71
2022-12-12T04:41:24.383Z,13.64
2022-12-12T04:42:07.795Z,15.31
2022-12-12T04:42:47.949Z,15.55
2022-12-12T04:43:40.803Z,15.21
2022-12-12T04:44:22.835Z,15.59
2022-12-12T04:45:10.926Z,14.64
2022-12-12T04:46:08.226Z,13.82
2022-12-12T04:46:49.791Z,15.75
2022-12-12T04:47:30.904Z,15.99
2022-12-12T04:48:12.816Z,15.18
2022-12-12T04:49:29.805Z,14.64
2022-12-12T04:50:04.401Z,15.89
2022-12-12T04:50:54.792Z,16.81
2022-12-12T04:51:44.338Z,16.81
2022-12-12T04:52:33.812Z,16.67
2022-12-12T04:53:16.542Z,18.06
2022-12-12T04:54:25.778Z,17.39
2022-12-12T04:55:19.990Z,17.80
2022-12-12T04:56:03.030Z,17.75
2022-12-12T04:56:44.779Z,16.11
2022-12-12T04:57:31.845Z,17.27
2022-12-12T04:58:12.765Z,16.61
2022-12-12T04:58:52.907Z,16.21
2022-12-12T04:59:33.784Z,17.70
2022-12-12T05:00:16.867Z,15.88
2022-12-12T05:01:25.843Z,17.44
2022-12-12T05:02:20.863Z,18.34
2022-12-12T05:03:33.785Z,17.69
2022-12-12T05:04:26.820Z,18.59
2022-12-12T05:05:16.750Z,20.88
2022-12-12T05:06:04.048Z,20.71
2022-12-12T05:06:53.829Z,20.21
2022-12-12T05:07:44.002Z,19.36
2022-12-12T05:08:48.766Z,20.20
2022-12-12T05:09:30.051Z,21.08
2022-12-12T05:10:14.760Z,21.83
2022-12-12T05:11:00.817Z,22.44
2022-12-12T05:11:41.743Z,21.46
2022-12-12T05:12:23.760Z,21.65
2022-12-12T05:13:03.802Z,22.32
2022-12-12T05:13:41.554Z,22.25
2022-12-12T05:14:22.755Z,22.16
2022-12-12T05:14:56.827Z,20.88
2022-12-12T05:15:30.497Z,21.14
2022-12-12T05:16:29.832Z,21.91
2022-12-12T05:17:14.048Z,22.02
2022-12-12T05:18:12.768Z,22.51
2022-12-12T05:18:53.776Z,21.95
2022-12-12T05:19:33.750Z,22.39
2022-12-12T05:20:14.778Z,21.50
2022-12-12T05:20:54.769Z,19.92
2022-12-12T05:21:34.788Z,20.02
2022-12-12T05:22:14.768Z,20.04
2022-12-12T05:22:54.786Z,18.21
2022-12-12T05:23:35.139Z,17.02
2022-12-12T05:24:14.807Z,18.11
2022-12-12T05:24:54.725Z,19.71
2022-12-12T05:25:35.805Z,19.71
2022-12-12T05:26:36.742Z,19.15
2022-12-12T05:27:18.847Z,18.38
2022-12-12T05:27:58.766Z,19.50
2022-12-12T05:28:45.805Z,19.98
2022-12-12T05:29:19.500Z,19.17
2022-12-12T05:30:07.757Z,19.34
2022-12-12T05:30:41.544Z,19.29
2022-12-12T05:31:28.742Z,19.27
2022-12-12T05:32:02.855Z,20.25
2022-12-12T05:32:49.741Z,20.39
2022-12-12T05:33:23.449Z,19.74
2022-12-12T05:34:10.755Z,19.91
2022-12-12T05:34:44.427Z,20.41
2022-12-12T05:35:31.723Z,22.70
2022-12-12T05:36:05.780Z,22.69
2022-12-12T05:36:52.731Z,22.66
2022-12-12T05:37:26.424Z,22.85
2022-12-12T05:38:15.717Z,22.42
2022-12-12T05:38:49.787Z,21.89
2022-12-12T05:39:30.767Z,21.06
2022-12-12T05:40:04.804Z,21.86
2022-12-12T05:40:38.722Z,22.96
2022-12-12T05:41:19.745Z,21.59
2022-12-12T05:42:00.916Z,21.98
2022-12-12T05:42:41.771Z,22.46
2022-12-12T05:43:21.823Z,21.33
2022-12-12T05:44:02.716Z,22.55
2022-12-12T05:44:49.754Z,22.56
2022-12-12T05:45:23.765Z,21.11
2022-12-12T05:46:10.886Z,21.13
2022-12-12T05:46:44.851Z,21.21
2022-12-12T05:47:31.715Z,21.02
2022-12-12T05:48:05.675Z,21.77
2022-12-12T05:48:56.738Z,21.23
2022-12-12T05:49:30.437Z,22.04
2022-12-12T05:50:12.747Z,24.33
2022-12-12T05:50:46.787Z,23.48
2022-12-12T05:51:21.198Z,23.61
2022-12-12T05:52:00.731Z,23.25
2022-12-12T05:52:34.798Z,25.00
2022-12-12T05:53:08.410Z,26.17
2022-12-12T05:53:49.714Z,24.90
2022-12-12T05:54:23.754Z,26.66
2022-12-12T05:54:57.398Z,25.75
2022-12-12T05:55:38.740Z,25.00
2022-12-12T05:56:12.906Z,26.49
2022-12-12T05:56:47.398Z,26.52
2022-12-12T05:57:27.696Z,25.20
2022-12-12T05:58:01.740Z,25.90
2022-12-12T05:58:35.548Z,26.45
2022-12-12T05:59:15.723Z,26.42
2022-12-12T05:59:49.762Z,25.17
2022-12-12T06:00:23.844Z,25.06
2022-12-12T06:01:04.740Z,24.50
2022-12-12T06:01:38.773Z,23.40
2022-12-12T06:02:13.333Z,23.09
2022-12-12T06:02:53.787Z,24.48
2022-12-12T06:03:27.750Z,25.24
2022-12-12T06:04:01.437Z,25.58
2022-12-12T06:04:41.698Z,25.45
2022-12-12T06:05:16.108Z,26.31
2022-12-12T06:05:50.366Z,27.06
2022-12-12T06:06:30.732Z,27.56
2022-12-12T06:07:04.735Z,26.86
2022-12-12T06:07:38.367Z,25.66
2022-12-12T06:08:23.630Z,25.95
2022-12-12T06:08:58.802Z,28.17
2022-12-12T06:09:32.658Z,32.80
2022-12-12T06:10:14.682Z,30.51
2022-12-12T06:10:48.716Z,28.89
2022-12-12T06:11:22.334Z,28.25
2022-12-12T06:12:02.768Z,29.41
2022-12-12T06:12:36.760Z,28.92
2022-12-12T06:13:10.571Z,29.73
2022-12-12T06:13:50.693Z,29.70
2022-12-12T06:14:24.752Z,30.17
2022-12-12T06:14:58.384Z,31.27
2022-12-12T06:15:38.729Z,29.84
2022-12-12T06:16:23.775Z,30.61
2022-12-12T06:16:57.634Z,29.91
2022-12-12T06:17:37.679Z,31.75
2022-12-12T06:18:12.215Z,34.76
2022-12-12T06:18:53.863Z,35.79
2022-12-12T06:19:33.699Z,32.65
2022-12-12T06:20:07.933Z,36.25
2022-12-12T06:20:41.459Z,42.41
2022-12-12T06:21:21.684Z,43.64
2022-12-12T06:21:55.736Z,45.80
2022-12-12T06:22:29.338Z,59.41
2022-12-12T06:23:10.696Z,74.29
2022-12-12T06:23:48.715Z,70.35
2022-12-12T06:24:22.707Z,57.90
2022-12-12T06:25:02.683Z,47.92
2022-12-12T06:25:36.724Z,45.95
2022-12-12T06:26:13.154Z,39.63
2022-12-12T06:26:52.682Z,41.47
2022-12-12T06:27:27.829Z,41.01
2022-12-12T06:28:01.369Z,39.76
2022-12-12T06:28:42.943Z,41.76
2022-12-12T06:29:16.741Z,44.19
2022-12-12T06:29:50.331Z,52.72
2022-12-12T06:30:30.644Z,60.81
2022-12-12T06:31:11.114Z,56.00
2022-12-12T06:31:45.351Z,53.63
2022-12-12T06:32:26.671Z,50.26
2022-12-12T06:33:00.779Z,56.21
2022-12-12T06:33:35.610Z,62.25
2022-12-12T06:34:15.683Z,58.91
2022-12-12T06:34:49.716Z,53.58
2022-12-12T06:35:23.575Z,61.19
2022-12-12T06:36:12.695Z,73.66
2022-12-12T06:36:46.729Z,67.53
2022-12-12T06:37:20.314Z,58.76
2022-12-12T06:38:00.674Z,53.90
2022-12-12T06:38:34.868Z,46.67
2022-12-12T06:39:09.642Z,39.79
2022-12-12T06:39:49.689Z,35.34
2022-12-12T06:40:23.783Z,34.47
2022-12-12T06:40:57.819Z,35.71
2022-12-12T06:41:39.665Z,36.49
2022-12-12T06:42:13.725Z,36.95
2022-12-12T06:42:48.856Z,42.63
2022-12-12T06:43:28.644Z,58.29
2022-12-12T06:44:02.737Z,76.35
2022-12-12T06:44:36.439Z,82.89
2022-12-12T06:45:17.674Z,78.38
2022-12-12T06:45:51.863Z,82.22
2022-12-12T06:46:27.878Z,90.19
2022-12-12T06:47:07.643Z,81.63
2022-12-12T06:47:41.705Z,62.60
2022-12-12T06:48:15.338Z,54.99
2022-12-12T06:48:56.666Z,63.46
2022-12-12T06:49:30.696Z,62.59
2022-12-12T06:50:04.878Z,49.76
2022-12-12T06:50:49.683Z,41.59
2022-12-12T06:51:28.872Z,36.80
2022-12-12T06:52:15.660Z,35.33
2022-12-12T06:52:49.689Z,39.56
2022-12-12T06:53:36.649Z,39.78
2022-12-12T06:54:10.709Z,37.59
2022-12-12T06:54:57.650Z,37.35
2022-12-12T06:55:31.683Z,32.21
2022-12-12T06:56:14.636Z,30.71
2022-12-12T06:56:54.952Z,31.58
2022-12-12T06:57:34.648Z,32.36
2022-12-12T06:58:14.674Z,33.90
2022-12-12T06:58:55.645Z,36.47
2022-12-12T06:59:35.679Z,38.67
2022-12-12T07:00:16.632Z,43.17
2022-12-12T07:01:00.693Z,53.71
2022-12-12T07:01:40.688Z,47.66
2022-12-12T07:02:52.772Z,41.79
2022-12-12T07:03:32.644Z,34.47
2022-12-12T07:04:13.735Z,30.10
2022-12-12T07:04:53.630Z,34.24
2022-12-12T07:05:34.258Z,35.39
2022-12-12T07:06:16.651Z,33.58
2022-12-12T07:06:56.712Z,33.88
2022-12-12T07:07:30.692Z,37.39
2022-12-12T07:08:17.708Z,39.20
2022-12-12T07:08:51.858Z,40.19
2022-12-12T07:09:39.612Z,41.81
2022-12-12T07:10:17.607Z,29.19
2022-12-12T07:11:37.645Z,20.91
2022-12-12T07:12:18.671Z,22.98
2022-12-12T07:13:12.631Z,23.60
2022-12-12T07:14:10.626Z,23.23
2022-12-12T07:15:04.613Z,20.44
2022-12-12T07:16:03.692Z,20.14
2022-12-12T07:16:57.685Z,20.65
2022-12-12T07:17:38.648Z,21.17
2022-12-12T07:18:19.740Z,19.86
2022-12-12T07:18:59.613Z,18.48
2022-12-12T07:19:39.658Z,16.85
2022-12-12T07:20:19.604Z,14.79
2022-12-12T07:20:59.721Z,14.60
2022-12-12T07:21:39.604Z,15.11
2022-12-12T07:22:33.599Z,15.67
2022-12-12T07:23:15.636Z,16.85
2022-12-12T07:23:55.664Z,17.38
2022-12-12T07:24:35.616Z,13.69
2022-12-12T07:25:15.819Z,15.01
2022-12-12T07:25:56.607Z,16.35
2022-12-12T07:26:36.669Z,15.45
2022-12-12T07:27:21.553Z,17.20
2022-12-12T07:28:01.623Z,17.42
2022-12-12T07:28:42.655Z,16.75
2022-12-12T07:29:22.692Z,15.04
2022-12-12T07:30:02.608Z,14.00
2022-12-12T07:30:46.896Z,13.93
2022-12-12T07:31:29.626Z,15.43
2022-12-12T07:32:09.644Z,17.71
2022-12-12T07:32:50.621Z,17.56
2022-12-12T07:33:41.004Z,13.81
2022-12-12T07:34:22.624Z,13.30
2022-12-12T07:35:02.647Z,13.94
2022-12-12T07:35:43.575Z,13.70
2022-12-12T07:36:23.631Z,13.41
2022-12-12T07:37:04.613Z,13.65
2022-12-12T07:37:44.635Z,12.70
2022-12-12T07:38:25.601Z,12.56
2022-12-12T07:39:05.684Z,12.54
2022-12-12T07:39:46.612Z,12.26
2022-12-12T07:40:26.627Z,11.73
2022-12-12T07:41:16.580Z,11.30
2022-12-12T07:41:56.621Z,10.70
2022-12-12T07:42:36.594Z,10.74
2022-12-12T07:43:16.627Z,11.50
2022-12-12T07:43:57.601Z,12.66
2022-12-12T07:44:37.625Z,15.35
2022-12-12T07:45:18.593Z,16.09
2022-12-12T07:45:58.662Z,14.13
2022-12-12T07:46:39.620Z,12.50
2022-12-12T07:47:19.621Z,12.09
2022-12-12T07:48:00.580Z,12.61
2022-12-12T07:48:40.639Z,11.61
2022-12-12T07:49:21.587Z,13.66
2022-12-12T07:50:01.639Z,14.85
2022-12-12T07:50:41.603Z,13.27
2022-12-12T07:51:22.704Z,12.13
2022-12-12T07:52:02.610Z,11.65
2022-12-12T07:52:42.662Z,11.76
2022-12-12T07:53:22.573Z,12.11
2022-12-12T07:54:02.613Z,11.39
2022-12-12T07:54:42.566Z,11.91
2022-12-12T07:55:22.611Z,12.71
2022-12-12T07:56:02.626Z,13.63
2022-12-12T07:56:42.629Z,12.96
2022-12-12T07:57:22.575Z,11.69
2022-12-12T07:58:02.616Z,10.77
2022-12-12T07:58:43.589Z,11.51
2022-12-12T07:59:23.606Z,11.40
2022-12-12T08:00:04.567Z,11.79
2022-12-12T08:00:44.607Z,11.68
2022-12-12T08:01:29.652Z,10.82
2022-12-12T08:02:10.710Z,10.99
2022-12-12T08:02:50.576Z,10.66
2022-12-12T08:03:30.636Z,10.79
2022-12-12T08:04:11.560Z,10.73
2022-12-12T08:04:51.656Z,10.99
2022-12-12T08:05:31.577Z,10.68
2022-12-12T08:06:16.230Z,10.90
2022-12-12T08:07:02.728Z,12.06
2022-12-12T08:07:46.979Z,12.29
2022-12-12T08:08:27.603Z,11.61
2022-12-12T08:09:07.631Z,12.26
2022-12-12T08:09:47.565Z,13.44
2022-12-12T08:10:27.645Z,15.20
2022-12-12T08:11:15.580Z,16.29
2022-12-12T08:12:04.592Z,14.74
2022-12-12T08:12:58.546Z,15.79
2022-12-12T08:13:53.561Z,17.25
2022-12-12T08:14:47.543Z,16.90
2022-12-12T08:15:41.615Z,13.45
2022-12-12T08:16:38.591Z,11.24
2022-12-12T08:17:25.591Z,10.15
2022-12-12T08:17:59.589Z,10.89
2022-12-12T08:18:46.548Z,9.48
2022-12-12T08:19:20.584Z,10.29
2022-12-12T08:20:07.539Z,11.19
2022-12-12T08:20:41.593Z,11.89
2022-12-12T08:21:29.531Z,10.93
2022-12-12T08:22:03.612Z,10.85
2022-12-12T08:22:50.568Z,11.15
2022-12-12T08:23:24.666Z,14.45
2022-12-12T08:24:11.539Z,20.36
2022-12-12T08:24:45.656Z,18.08
2022-12-12T08:25:32.549Z,18.46
2022-12-12T08:26:15.592Z,20.50
2022-12-12T08:27:02.538Z,21.66
2022-12-12T08:27:36.618Z,24.86
2022-12-12T08:28:16.563Z,27.85
2022-12-12T08:28:56.600Z,29.75
2022-12-12T08:29:37.541Z,29.46
2022-12-12T08:30:18.598Z,30.25
2022-12-12T08:30:58.624Z,25.75
2022-12-12T08:31:38.645Z,25.09
2022-12-12T08:32:18.538Z,24.98
2022-12-12T08:33:01.321Z,19.24
2022-12-12T08:33:43.584Z,16.59
2022-12-12T08:34:23.593Z,22.88
2022-12-12T08:35:05.539Z,23.56
2022-12-12T08:35:45.586Z,22.71
2022-12-12T08:36:30.524Z,19.99
2022-12-12T08:37:10.646Z,12.05
2022-12-12T08:37:50.535Z,12.79
2022-12-12T08:38:30.737Z,16.16
2022-12-12T08:39:18.531Z,19.30
2022-12-12T08:39:58.573Z,17.40
2022-12-12T08:40:39.520Z,12.79
2022-12-12T08:41:20.617Z,11.89
2022-12-12T08:42:00.576Z,13.27
2022-12-12T08:42:40.664Z,14.54
2022-12-12T08:43:21.533Z,14.60
2022-12-12T08:44:01.633Z,16.13
2022-12-12T08:44:41.545Z,13.81
2022-12-12T08:45:21.622Z,12.93
2022-12-12T08:46:13.697Z,15.88
2022-12-12T08:46:57.664Z,15.21
2022-12-12T08:47:38.503Z,12.69
2022-12-12T08:48:18.592Z,12.55
2022-12-12T08:48:59.542Z,12.04
2022-12-12T08:49:39.571Z,14.91
2022-12-12T08:50:20.533Z,16.31
2022-12-12T08:51:00.551Z,14.43
2022-12-12T08:51:42.519Z,12.39
2022-12-12T08:52:23.548Z,11.13
2022-12-12T08:53:03.501Z,9.74
2022-12-12T08:53:43.546Z,9.61
2022-12-12T08:54:24.534Z,10.13
2022-12-12T08:55:04.641Z,11.41
2022-12-12T08:55:44.539Z,10.85
2022-12-12T08:56:25.703Z,10.21
2022-12-12T08:57:06.512Z,10.46
2022-12-12T08:57:46.569Z,11.66
2022-12-12T08:58:27.512Z,11.06
2022-12-12T08:59:07.599Z,10.31
2022-12-12T08:59:48.523Z,10.93
2022-12-12T09:00:28.580Z,12.20
2022-12-12T09:01:09.541Z,11.85
2022-12-12T09:01:49.719Z,13.00
2022-12-12T09:02:31.591Z,13.80
2022-12-12T09:03:11.954Z,16.00
2022-12-12T09:03:52.496Z,15.86
2022-12-12T09:04:32.575Z,12.07
2022-12-12T09:05:13.645Z,11.11
2022-12-12T09:05:54.536Z,9.40
2022-12-12T09:06:35.528Z,10.80
2022-12-12T09:07:15.558Z,10.04
2022-12-12T09:07:56.553Z,10.18
2022-12-12T09:08:36.609Z,9.85
2022-12-12T09:09:16.499Z,10.49
2022-12-12T09:09:56.631Z,12.21
2022-12-12T09:10:36.492Z,10.99
2022-12-12T09:11:17.603Z,10.76
2022-12-12T09:11:57.515Z,11.13
2022-12-12T09:12:41.622Z,10.79
2022-12-12T09:13:23.469Z,10.05
2022-12-12T09:14:03.534Z,9.60
2022-12-12T09:14:43.559Z,10.48
2022-12-12T09:15:24.528Z,10.50
2022-12-12T09:16:04.556Z,10.99
2022-12-12T09:16:44.577Z,10.13
2022-12-12T09:17:25.586Z,10.57
2022-12-12T09:18:05.548Z,10.06
2022-12-12T09:18:49.418Z,9.85
2022-12-12T09:19:31.023Z,10.88
2022-12-12T09:20:12.508Z,11.54
2022-12-12T09:20:57.642Z,9.39
2022-12-12T09:21:37.511Z,9.66
2022-12-12T09:22:17.945Z,11.20
2022-12-12T09:22:57.535Z,10.85
2022-12-12T09:23:38.564Z,10.01
2022-12-12T09:24:19.471Z,9.32
2022-12-12T09:25:00.169Z,9.77
2022-12-12T09:25:42.805Z,10.00
2022-12-12T09:26:23.584Z,11.50
2022-12-12T09:27:03.520Z,12.20
2022-12-12T09:27:43.572Z,11.35
2022-12-12T09:28:26.542Z,10.77
2022-12-12T09:29:07.583Z,10.55
2022-12-12T09:29:47.500Z,11.32
2022-12-12T09:30:27.580Z,10.89
2022-12-12T09:31:14.495Z,12.05
2022-12-12T09:31:54.739Z,12.84
2022-12-12T09:32:35.478Z,13.49
2022-12-12T09:33:15.538Z,12.66
2022-12-12T09:33:56.530Z,11.75
2022-12-12T09:34:36.512Z,11.65
2022-12-12T09:35:17.476Z,12.25
2022-12-12T09:36:08.539Z,12.02
2022-12-12T09:36:48.455Z,14.30
2022-12-12T09:37:28.593Z,14.73
2022-12-12T09:38:13.969Z,13.19
2022-12-12T09:38:54.497Z,11.27
2022-12-12T09:39:34.465Z,11.19
2022-12-12T09:40:17.549Z,12.56
2022-12-12T09:41:04.472Z,11.86
2022-12-12T09:41:44.554Z,10.52
2022-12-12T09:42:36.461Z,10.95